Time;durP1;ratioP1;P1;durP2;ratioP2;P2;SDS_P1;SDS_P2;PMS_P1;PMS_P2;Temp;Humidity;BMP_temperature;BMP_pressure;BME280_temperature;BME280_humidity;BME280_pressure;Samples;Min_cycle;Max_cycle;Signal;HPM_P1;HPM_P2
2024/04/03 00:01:15;;;;;;;478.75;86.70;;;12.60;38.80;;;;;;5025166;28;20057;-60
2024/04/03 00:03:44;;;;;;;500.60;92.18;;;12.60;39.00;;;;;;5011533;28;20192;-60
2024/04/03 00:06:12;;;;;;;486.45;90.35;;;12.60;39.20;;;;;;5001316;28;20057;-61
2024/04/03 00:08:39;;;;;;;502.75;93.55;;;12.50;39.20;;;;;;5005958;28;20100;-61
2024/04/03 00:11:06;;;;;;;454.80;82.75;;;12.50;39.20;;;;;;5005469;28;20099;-61
2024/04/03 00:13:33;;;;;;;594.13;128.52;;;12.50;39.20;;;;;;4993742;28;20061;-60
2024/04/03 00:16:01;;;;;;;469.45;84.97;;;12.50;39.20;;;;;;5004594;28;20080;-60
2024/04/03 00:18:28;;;;;;;670.63;160.07;;;12.50;39.10;;;;;;5001780;28;20241;-60
2024/04/03 00:21:02;;;;;;;468.42;80.75;;;12.50;39.30;;;;;;4991210;28;21894;-60
2024/04/03 00:23:30;;;;;;;461.98;83.13;;;12.50;39.40;;;;;;5008803;28;20522;-61
2024/04/03 00:25:58;;;;;;;514.22;95.20;;;12.50;39.40;;;;;;5004577;28;20368;-60
2024/04/03 00:28:26;;;;;;;632.42;146.68;;;12.50;39.50;;;;;;4996440;28;20397;-60
2024/04/03 00:30:52;;;;;;;473.52;84.38;;;12.40;39.30;;;;;;5010545;28;20045;-61
2024/04/03 00:33:21;;;;;;;556.83;113.70;;;12.40;39.50;;;;;;5003075;28;20081;-61
2024/04/03 00:35:59;;;;;;;486.90;90.05;;;12.40;39.50;;;;;;5007634;28;20050;-61
2024/04/03 00:38:27;;;;;;;627.63;146.70;;;12.40;39.50;;;;;;4998027;28;20711;-60
2024/04/03 00:40:55;;;;;;;461.27;81.65;;;12.40;39.80;;;;;;5017570;28;20068;-60
2024/04/03 00:43:22;;;;;;;455.83;76.82;;;12.40;39.90;;;;;;5008125;28;20549;-60
2024/04/03 00:45:49;;;;;;;545.15;106.70;;;12.40;40.20;;;;;;5005736;28;20057;-61
2024/04/03 00:48:17;;;;;;;616.78;139.90;;;12.30;40.00;;;;;;5005894;28;20053;-60
2024/04/03 00:50:46;;;;;;;456.02;80.57;;;12.30;40.00;;;;;;5006522;28;20057;-60
2024/04/03 00:53:15;;;;;;;511.42;97.78;;;12.30;40.50;;;;;;5012626;28;20103;-61
2024/04/03 00:55:43;;;;;;;470.58;84.93;;;12.20;40.20;;;;;;5009554;28;20172;-60
2024/04/03 00:58:10;;;;;;;465.88;81.70;;;12.20;40.20;;;;;;5010308;28;20057;-60
2024/04/03 01:00:37;;;;;;;457.40;80.38;;;12.20;40.20;;;;;;5005717;28;20054;-65
2024/04/03 01:03:05;;;;;;;475.40;83.65;;;12.20;40.20;;;;;;5014142;28;20060;-60
2024/04/03 01:05:31;;;;;;;445.00;75.10;;;12.20;40.10;;;;;;5006032;28;20060;-61
2024/04/03 01:08:00;;;;;;;461.70;95.57;;;12.20;40.90;;;;;;5009762;28;20107;-61
2024/04/03 01:10:27;;;;;;;622.13;141.73;;;12.20;40.20;;;;;;5000368;28;20076;-60
2024/04/03 01:12:55;;;;;;;480.55;84.00;;;12.10;40.10;;;;;;5004435;28;20053;-61
2024/04/03 01:15:22;;;;;;;454.42;76.63;;;12.10;40.30;;;;;;4995111;28;20054;-59
2024/04/03 01:17:49;;;;;;;484.70;85.10;;;12.10;40.40;;;;;;5009213;28;20064;-59
2024/04/03 01:20:16;;;;;;;618.63;137.40;;;12.10;40.40;;;;;;5003660;28;20161;-61
2024/04/03 01:22:43;;;;;;;467.52;80.50;;;12.10;40.80;;;;;;5013786;28;20053;-61
2024/04/03 01:25:11;;;;;;;469.92;80.30;;;12.10;40.70;;;;;;5008350;28;20049;-60
2024/04/03 01:27:38;;;;;;;456.92;78.45;;;12.10;40.60;;;;;;5004306;28;20530;-61
2024/04/03 01:30:06;;;;;;;463.25;79.05;;;12.10;40.70;;;;;;5014394;28;21046;-59
2024/04/03 01:32:33;;;;;;;476.50;87.28;;;12.10;40.60;;;;;;5000841;28;21287;-62
2024/04/03 01:35:00;;;;;;;463.55;79.30;;;12.10;40.60;;;;;;5000174;28;20050;-60
2024/04/03 01:37:27;;;;;;;457.77;78.25;;;12.10;40.60;;;;;;5001279;28;20579;-62
2024/04/03 01:39:53;;;;;;;496.23;89.07;;;12.00;40.50;;;;;;5003504;28;20057;-61
2024/04/03 01:42:25;;;;;;;698.85;173.82;;;12.10;40.60;;;;;;4995119;28;20038;-60
2024/04/03 01:44:51;;;;;;;468.55;83.03;;;12.00;40.60;;;;;;5011149;28;20104;-60
2024/04/03 01:47:18;;;;;;;504.63;89.35;;;12.00;40.90;;;;;;4986443;28;20099;-60
2024/04/03 01:49:45;;;;;;;457.65;76.75;;;12.00;41.30;;;;;;5009730;28;20049;-59
2024/04/03 01:52:12;;;;;;;499.60;93.20;;;12.00;40.60;;;;;;5007415;28;20506;-60
2024/04/03 01:54:38;;;;;;;574.25;110.60;;;12.00;40.70;;;;;;5003848;28;20651;-60
2024/04/03 01:57:06;;;;;;;498.90;89.78;;;12.00;40.70;;;;;;5009851;28;20057;-61
2024/04/03 01:59:33;;;;;;;481.60;86.40;;;12.00;40.70;;;;;;5008075;28;20066;-60
2024/04/03 02:02:01;;;;;;;471.75;80.82;;;12.00;40.70;;;;;;4993669;28;20079;-60
2024/04/03 02:04:27;;;;;;;582.53;128.65;;;11.90;40.90;;;;;;5003104;28;20473;-64
2024/04/03 02:06:54;;;;;;;460.48;78.07;;;11.90;40.80;;;;;;5009786;28;20329;-59
2024/04/03 02:09:21;;;;;;;497.95;87.20;;;11.90;40.90;;;;;;5003940;28;20082;-59
2024/04/03 02:11:48;;;;;;;451.65;76.85;;;11.90;41.50;;;;;;5007033;28;20053;-59
2024/04/03 02:14:15;;;;;;;609.03;132.02;;;11.90;41.60;;;;;;5002448;28;20546;-58
2024/04/03 02:16:46;;;;;;;460.83;77.38;;;11.90;41.50;;;;;;4997737;28;20057;-59
2024/04/03 02:19:13;;;;;;;493.52;88.68;;;11.90;41.40;;;;;;5011167;28;20061;-60
2024/04/03 02:21:40;;;;;;;454.13;76.40;;;11.90;41.50;;;;;;5010647;28;20060;-60
2024/04/03 02:24:07;;;;;;;476.83;82.35;;;11.90;41.80;;;;;;4993438;28;20048;-60
2024/04/03 02:26:34;;;;;;;490.95;89.05;;;11.90;41.60;;;;;;4978762;28;20906;-59
2024/04/03 02:29:01;;;;;;;454.80;77.78;;;11.90;41.50;;;;;;5011151;28;20056;-60
2024/04/03 02:31:28;;;;;;;471.55;81.75;;;11.80;41.40;;;;;;5006700;28;20058;-60
2024/04/03 02:33:56;;;;;;;448.98;77.03;;;11.80;41.20;;;;;;5011182;28;20407;-61
2024/04/03 02:36:24;;;;;;;612.15;142.35;;;11.70;41.30;;;;;;5007103;28;20061;-60
2024/04/03 02:38:50;;;;;;;456.63;78.55;;;11.70;41.30;;;;;;4996072;28;20049;-60
2024/04/03 02:41:18;;;;;;;468.50;81.28;;;11.60;41.30;;;;;;5005241;28;20115;-60
2024/04/03 02:43:44;;;;;;;464.20;80.25;;;11.60;41.40;;;;;;5010793;28;20065;-60
2024/04/03 02:46:12;;;;;;;548.00;107.60;;;11.60;41.50;;;;;;5001489;28;20053;-62
2024/04/03 02:48:38;;;;;;;446.17;75.22;;;11.60;41.50;;;;;;5002662;28;20049;-61
2024/04/03 02:51:09;;;;;;;449.77;76.07;;;11.60;41.50;;;;;;5004904;28;20049;-61
2024/04/03 02:53:36;;;;;;;479.45;82.72;;;11.60;41.50;;;;;;5010600;28;20083;-60
2024/04/03 02:56:04;;;;;;;444.20;74.35;;;11.60;41.50;;;;;;5015662;28;20069;-61
2024/04/03 02:58:31;;;;;;;466.23;92.18;;;11.50;41.70;;;;;;4996177;28;20065;-61
2024/04/03 03:01:00;;;;;;;480.98;84.22;;;11.50;41.70;;;;;;5011713;28;20084;-60
2024/04/03 03:03:29;;;;;;;451.10;76.57;;;11.50;41.80;;;;;;5021807;28;20539;-60
2024/04/03 03:05:57;;;;;;;462.42;79.55;;;11.40;41.90;;;;;;5019924;28;20069;-58
2024/04/03 03:08:26;;;;;;;640.53;151.32;;;11.40;41.70;;;;;;5003544;28;20140;-60
2024/04/03 03:10:54;;;;;;;448.65;76.68;;;11.40;41.80;;;;;;5013605;28;20129;-60
2024/04/03 03:13:20;;;;;;;464.33;79.57;;;11.30;41.90;;;;;;5016400;28;20049;-60
2024/04/03 03:15:54;;;;;;;481.00;83.90;;;11.30;42.30;;;;;;5015109;28;20050;-61
2024/04/03 03:18:20;;;;;;;661.05;159.93;;;11.30;42.20;;;;;;5008865;28;20142;-60
2024/04/03 03:20:48;;;;;;;485.88;84.22;;;11.30;42.10;;;;;;5013370;28;20507;-61
2024/04/03 03:23:16;;;;;;;470.92;80.75;;;11.20;42.30;;;;;;5010873;28;21071;-61
2024/04/03 03:25:47;;;;;;;466.23;80.25;;;11.20;42.40;;;;;;5014022;28;20096;-61
2024/04/03 03:28:14;;;;;;;623.25;131.80;;;11.20;42.40;;;;;;5009783;28;20057;-60
2024/04/03 03:30:42;;;;;;;464.30;79.07;;;11.10;42.30;;;;;;5013247;28;20558;-60
2024/04/03 03:33:08;;;;;;;507.08;94.85;;;11.10;42.30;;;;;;5006103;28;20120;-61
2024/04/03 03:35:35;;;;;;;466.58;80.35;;;11.10;42.30;;;;;;5013796;28;20062;-59
2024/04/03 03:38:03;;;;;;;518.20;96.35;;;11.10;42.30;;;;;;5015964;28;20046;-60
2024/04/03 03:40:32;;;;;;;487.85;93.45;;;11.10;42.30;;;;;;5030126;28;20565;-60
2024/04/03 03:43:01;;;;;;;459.92;79.78;;;11.00;42.10;;;;;;5013301;28;20061;-59
2024/04/03 03:45:28;;;;;;;448.30;74.38;;;11.00;42.50;;;;;;5010048;28;20072;-59
2024/04/03 03:47:55;;;;;;;448.88;76.82;;;11.00;43.00;;;;;;5010786;28;20058;-60
2024/04/03 03:53:07;;;;;;;446.85;75.57;;;11.00;42.60;;;;;;5014460;28;20052;-60
2024/04/03 03:55:34;;;;;;;511.17;92.93;;;11.00;42.50;;;;;;5007617;28;20069;-60
2024/04/03 03:58:03;;;;;;;471.42;81.72;;;11.00;42.60;;;;;;5015821;28;20087;-61
2024/04/03 04:00:31;;;;;;;484.13;96.45;;;11.10;42.40;;;;;;4998672;28;20352;-60
2024/04/03 04:02:58;;;;;;;464.55;80.03;;;11.10;42.20;;;;;;5011999;28;20058;-60
2024/04/03 04:05:25;;;;;;;460.38;78.82;;;11.10;42.10;;;;;;5015651;28;20065;-61
2024/04/03 04:07:52;;;;;;;468.38;81.13;;;11.10;42.10;;;;;;5016541;28;20054;-61
2024/04/03 04:10:18;;;;;;;617.65;145.68;;;11.10;42.20;;;;;;5012175;28;20480;-60
2024/04/03 04:12:46;;;;;;;482.33;84.15;;;11.10;42.40;;;;;;5009802;28;20112;-62
2024/04/03 04:15:13;;;;;;;464.35;80.07;;;11.10;42.30;;;;;;5006639;28;20057;-60
2024/04/03 04:17:41;;;;;;;472.05;82.13;;;11.10;42.30;;;;;;5012725;28;20565;-60
2024/04/03 04:20:08;;;;;;;447.67;76.50;;;11.10;42.50;;;;;;5015514;28;20057;-61
2024/04/03 04:22:35;;;;;;;480.67;99.63;;;11.10;42.50;;;;;;5011046;28;20088;-61
2024/04/03 04:25:02;;;;;;;478.05;102.30;;;11.10;42.50;;;;;;5015350;28;20401;-61
2024/04/03 04:27:30;;;;;;;455.30;87.45;;;11.20;42.40;;;;;;5011345;28;20073;-61
2024/04/03 04:29:57;;;;;;;446.52;76.43;;;11.20;42.50;;;;;;4996032;28;20056;-61
2024/04/03 04:32:25;;;;;;;626.20;145.05;;;11.20;42.40;;;;;;5002528;28;20057;-61
2024/04/03 04:34:55;;;;;;;478.40;83.88;;;11.20;42.40;;;;;;5013632;28;20061;-61
2024/04/03 04:37:23;;;;;;;520.40;95.90;;;11.30;42.30;;;;;;5004016;28;20054;-62
2024/04/03 04:39:49;;;;;;;489.98;86.78;;;11.30;42.30;;;;;;5007908;28;20097;-61
2024/04/03 04:42:16;;;;;;;688.90;159.00;;;11.30;42.10;;;;;;5006836;28;20140;-61
2024/04/03 04:44:43;;;;;;;481.08;84.13;;;11.30;42.10;;;;;;5003828;28;20104;-60
2024/04/03 04:47:10;;;;;;;502.10;93.75;;;11.30;42.00;;;;;;5007651;28;20053;-60
2024/04/03 04:49:38;;;;;;;460.40;79.35;;;11.30;42.00;;;;;;5002941;28;20061;-61
2024/04/03 04:52:06;;;;;;;457.00;78.78;;;11.30;42.10;;;;;;5010470;28;20436;-61
2024/04/03 04:54:33;;;;;;;472.25;82.75;;;11.30;41.90;;;;;;4999013;28;21547;-62
2024/04/03 04:57:01;;;;;;;469.40;82.18;;;11.30;41.90;;;;;;5005160;28;20188;-62
2024/04/03 04:59:27;;;;;;;487.27;86.18;;;11.30;41.90;;;;;;5001296;28;20071;-62
2024/04/03 05:01:55;;;;;;;520.00;94.45;;;11.30;42.00;;;;;;5009377;28;20171;-61
2024/04/03 05:04:22;;;;;;;620.00;135.13;;;11.30;41.80;;;;;;5000994;28;20068;-62
2024/04/03 05:06:51;;;;;;;521.47;95.40;;;11.30;41.90;;;;;;4989248;28;20127;-62
2024/04/03 05:09:18;;;;;;;475.05;82.25;;;11.30;41.90;;;;;;5007592;28;20543;-61
2024/04/03 05:11:45;;;;;;;473.48;81.80;;;11.30;41.90;;;;;;5002865;28;20060;-62
2024/04/03 05:14:13;;;;;;;506.70;92.80;;;11.30;41.90;;;;;;5001319;28;20527;-63
2024/04/03 05:16:40;;;;;;;469.48;80.70;;;11.30;41.90;;;;;;5009152;28;20534;-63
2024/04/03 05:19:08;;;;;;;469.45;81.07;;;11.30;41.90;;;;;;5008149;28;20081;-63
2024/04/03 05:21:35;;;;;;;465.50;80.85;;;11.30;41.90;;;;;;4995994;28;20068;-61
2024/04/03 05:24:03;;;;;;;475.60;85.47;;;11.30;42.00;;;;;;5007109;28;20049;-64
2024/04/03 05:26:31;;;;;;;493.38;98.70;;;11.30;41.90;;;;;;4995296;28;20311;-59
2024/04/03 05:28:58;;;;;;;495.15;88.18;;;11.30;41.90;;;;;;5000967;28;20046;-63
2024/04/03 05:31:25;;;;;;;506.58;89.57;;;11.30;41.80;;;;;;5005887;28;20502;-63
2024/04/03 05:33:52;;;;;;;531.22;102.53;;;11.40;41.90;;;;;;5004230;28;20144;-63
2024/04/03 05:36:20;;;;;;;634.85;147.93;;;11.40;42.00;;;;;;4991932;28;20831;-63
2024/04/03 05:38:46;;;;;;;467.65;81.15;;;11.40;42.00;;;;;;5002293;28;20065;-64
2024/04/03 05:41:15;;;;;;;523.55;97.88;;;11.50;42.00;;;;;;4995901;28;20121;-65
2024/04/03 05:43:42;;;;;;;480.98;83.68;;;11.60;42.00;;;;;;5001052;28;20113;-62
2024/04/03 05:46:09;;;;;;;526.90;97.15;;;11.60;42.00;;;;;;4984421;28;20538;-63
2024/04/03 05:48:37;;;;;;;515.42;93.22;;;11.70;42.00;;;;;;4991226;28;20052;-64
2024/04/03 05:51:06;;;;;;;558.95;107.57;;;11.90;42.10;;;;;;5004447;28;20080;-64
2024/04/03 05:53:33;;;;;;;474.88;83.70;;;12.00;42.20;;;;;;5009898;28;20486;-63
2024/04/03 05:56:02;;;;;;;461.10;81.57;;;12.20;42.10;;;;;;5002896;28;20053;-61
2024/04/03 05:58:30;;;;;;;566.28;125.15;;;12.40;42.30;;;;;;5000015;28;20105;-63
2024/04/03 06:00:58;;;;;;;479.95;83.30;;;12.50;42.30;;;;;;5004421;28;20058;-61
2024/04/03 06:03:25;;;;;;;504.60;91.55;;;12.70;42.70;;;;;;4997272;28;20061;-61
2024/04/03 06:05:53;;;;;;;495.83;87.63;;;12.90;42.60;;;;;;5001811;28;20679;-61
2024/04/03 06:08:20;;;;;;;682.67;167.82;;;13.00;42.50;;;;;;4992719;28;20061;-61
2024/04/03 06:10:47;;;;;;;496.33;88.13;;;13.20;42.40;;;;;;4989482;28;20056;-61
2024/04/03 06:13:14;;;;;;;550.80;106.75;;;13.40;42.40;;;;;;5008089;28;20060;-62
2024/04/03 06:15:42;;;;;;;486.23;86.63;;;13.60;42.30;;;;;;5000086;28;20061;-61
2024/04/03 06:18:11;;;;;;;506.75;90.50;;;13.80;42.40;;;;;;5003274;28;20107;-61
2024/04/03 06:20:38;;;;;;;534.45;98.07;;;13.90;42.00;;;;;;4999294;28;20094;-62
2024/04/03 06:23:06;;;;;;;476.33;83.80;;;14.10;41.90;;;;;;5001902;28;20507;-61
2024/04/03 06:25:32;;;;;;;475.20;83.45;;;14.20;41.90;;;;;;5007772;28;20048;-61
2024/04/03 06:27:59;;;;;;;509.38;92.28;;;14.40;41.80;;;;;;5012302;28;20045;-60
2024/04/03 06:30:27;;;;;;;702.88;175.52;;;14.50;41.60;;;;;;5015299;28;20515;-65
2024/04/03 06:32:55;;;;;;;488.92;87.50;;;14.60;41.70;;;;;;4998522;28;20516;-63
2024/04/03 06:35:24;;;;;;;512.88;93.85;;;14.80;41.50;;;;;;5000393;28;20042;-60
2024/04/03 06:37:50;;;;;;;482.45;86.90;;;14.90;41.40;;;;;;4987688;28;20049;-60
2024/04/03 06:40:19;;;;;;;669.78;151.75;;;15.00;41.30;;;;;;4994852;28;20144;-62
2024/04/03 06:42:45;;;;;;;533.00;101.57;;;15.10;41.20;;;;;;5009805;28;20516;-61
2024/04/03 06:45:12;;;;;;;549.13;107.32;;;15.30;41.20;;;;;;4983973;28;20541;-61
2024/04/03 06:47:39;;;;;;;476.00;84.93;;;15.50;41.20;;;;;;5001568;28;20057;-61
2024/04/03 06:50:08;;;;;;;500.67;92.70;;;15.70;41.00;;;;;;5003177;28;20053;-60
2024/04/03 06:52:35;;;;;;;496.55;92.60;;;15.70;40.80;;;;;;4987842;28;20057;-62
2024/04/03 06:55:02;;;;;;;491.02;90.03;;;15.80;40.70;;;;;;5001896;28;20073;-61
2024/04/03 06:57:28;;;;;;;511.83;96.30;;;15.70;40.60;;;;;;5000757;28;20161;-61
2024/04/03 06:59:56;;;;;;;484.40;87.85;;;15.70;40.60;;;;;;5005814;28;20062;-61
2024/04/03 07:02:22;;;;;;;638.83;158.65;;;15.70;40.60;;;;;;4998805;28;20141;-61
2024/04/03 07:04:50;;;;;;;495.40;90.40;;;15.80;40.70;;;;;;5004277;28;20826;-61
2024/04/03 07:07:19;;;;;;;579.38;117.05;;;15.80;40.60;;;;;;5004660;28;20077;-60
2024/04/03 07:09:46;;;;;;;534.03;104.15;;;15.90;40.70;;;;;;4996528;28;20590;-64
2024/04/03 07:12:14;;;;;;;574.65;126.18;;;16.00;40.70;;;;;;4999496;28;20535;-61
2024/04/03 07:14:41;;;;;;;515.17;98.80;;;16.10;40.50;;;;;;5006833;28;20502;-62
2024/04/03 07:17:07;;;;;;;470.08;87.85;;;16.10;40.40;;;;;;5002511;28;20061;-61
2024/04/03 07:19:37;;;;;;;491.98;92.43;;;16.20;40.40;;;;;;5008219;28;20539;-63
2024/04/03 07:22:03;;;;;;;474.48;88.35;;;16.40;40.50;;;;;;5009645;28;20109;-62
2024/04/03 07:24:32;;;;;;;510.55;111.63;;;16.50;40.30;;;;;;5000385;28;20317;-62
2024/04/03 07:26:58;;;;;;;483.10;91.47;;;16.70;40.30;;;;;;5017856;28;20068;-63
2024/04/03 07:29:26;;;;;;;490.70;93.28;;;16.80;40.20;;;;;;5001075;28;20402;-62
2024/04/03 07:31:52;;;;;;;491.42;93.40;;;16.90;40.00;;;;;;5004817;28;20601;-61
2024/04/03 07:34:20;;;;;;;636.63;163.15;;;17.00;39.90;;;;;;4990001;28;20099;-62
2024/04/03 07:36:46;;;;;;;502.17;95.85;;;17.20;39.90;;;;;;5006255;28;20518;-62
2024/04/03 07:39:13;;;;;;;496.05;95.85;;;17.20;39.80;;;;;;5007051;28;20420;-66
2024/04/03 07:41:41;;;;;;;499.27;95.28;;;17.30;39.70;;;;;;5006451;28;20495;-62
2024/04/03 07:44:14;;;;;;;477.33;92.90;;;17.50;39.80;;;;;;5008594;28;20069;-63
2024/04/03 07:46:40;;;;;;;512.08;98.82;;;17.60;39.60;;;;;;5008663;28;20059;-63
2024/04/03 07:49:07;;;;;;;475.38;91.72;;;17.80;39.50;;;;;;5004085;28;20478;-61
2024/04/03 07:51:34;;;;;;;482.15;93.65;;;17.90;39.30;;;;;;5015750;28;20061;-61
2024/04/03 07:54:01;;;;;;;499.55;99.03;;;18.00;39.20;;;;;;4998017;28;20053;-61
2024/04/03 07:56:28;;;;;;;623.80;146.98;;;18.10;39.10;;;;;;5000235;28;20129;-62
2024/04/03 07:58:56;;;;;;;517.15;103.30;;;18.20;39.00;;;;;;5010511;28;20064;-62
2024/04/03 08:01:23;;;;;;;485.42;93.65;;;18.30;39.00;;;;;;5013498;28;20368;-62
2024/04/03 08:03:50;;;;;;;493.27;97.28;;;18.50;39.00;;;;;;5007658;28;20045;-61
2024/04/03 08:06:17;;;;;;;645.38;158.05;;;18.70;38.70;;;;;;5008481;28;20546;-64
2024/04/03 08:08:44;;;;;;;500.65;99.47;;;18.80;38.40;;;;;;5005630;28;20127;-61
2024/04/03 08:11:11;;;;;;;505.35;102.95;;;18.90;38.40;;;;;;5009325;28;20376;-62
2024/04/03 08:13:38;;;;;;;478.20;95.22;;;19.00;38.40;;;;;;5013941;28;20068;-62
2024/04/03 08:16:08;;;;;;;497.65;98.97;;;19.20;38.40;;;;;;5005410;28;20504;-62
2024/04/03 08:18:36;;;;;;;504.48;101.40;;;19.40;38.40;;;;;;4985568;28;20536;-62
2024/04/03 08:21:06;;;;;;;489.50;99.10;;;19.50;38.60;;;;;;5027715;28;20062;-63
2024/04/03 08:23:34;;;;;;;486.52;98.70;;;19.50;37.70;;;;;;4989012;28;20661;-61
2024/04/03 08:26:07;;;;;;;485.85;102.30;;;19.60;37.80;;;;;;4994125;28;20471;-61
2024/04/03 08:28:37;;;;;;;552.92;120.78;;;19.60;37.80;;;;;;4992349;28;20061;-62
2024/04/03 08:31:11;;;;;;;509.80;107.70;;;19.60;37.60;;;;;;5009030;28;20194;-65
2024/04/03 08:33:38;;;;;;;489.48;100.85;;;19.80;37.70;;;;;;4995584;28;20070;-62
2024/04/03 08:36:07;;;;;;;493.92;101.15;;;19.80;37.60;;;;;;5002921;28;20436;-62
2024/04/03 08:38:35;;;;;;;493.70;111.13;;;19.90;37.60;;;;;;4998493;28;20956;-63
2024/04/03 08:41:02;;;;;;;521.45;110.93;;;19.90;37.50;;;;;;5000215;28;20058;-62
2024/04/03 08:43:29;;;;;;;505.73;108.45;;;19.90;37.40;;;;;;5012265;28;20145;-62
2024/04/03 08:45:56;;;;;;;507.10;106.55;;;19.80;37.20;;;;;;5017070;28;20135;-63
2024/04/03 08:48:27;;;;;;;657.65;174.63;;;19.80;37.10;;;;;;5003689;28;20061;-61
2024/04/03 08:50:54;;;;;;;509.52;106.10;;;19.70;37.30;;;;;;5001207;28;20073;-63
2024/04/03 08:53:22;;;;;;;503.00;105.70;;;19.80;37.40;;;;;;5005939;28;20100;-62
2024/04/03 08:55:50;;;;;;;524.63;111.78;;;19.80;37.30;;;;;;4992286;28;20045;-61
2024/04/03 08:58:17;;;;;;;656.95;166.90;;;19.70;37.20;;;;;;4999150;28;20069;-63
2024/04/03 09:00:44;;;;;;;513.75;110.93;;;19.70;37.10;;;;;;5008129;28;20096;-63
2024/04/03 09:03:13;;;;;;;500.38;103.13;;;19.70;37.10;;;;;;4995606;28;20069;-61
2024/04/03 09:05:42;;;;;;;565.53;126.03;;;19.70;37.30;;;;;;5009716;28;20061;-63
2024/04/03 09:08:10;;;;;;;489.67;104.47;;;19.80;37.20;;;;;;4999146;28;20057;-61
2024/04/03 09:10:43;;;;;;;581.35;140.82;;;19.80;37.20;;;;;;5009212;28;20140;-65
2024/04/03 09:13:11;;;;;;;478.13;99.20;;;19.90;37.10;;;;;;5009092;28;20077;-63
2024/04/03 09:15:37;;;;;;;516.38;110.63;;;19.90;37.00;;;;;;4994540;28;20094;-64
2024/04/03 09:18:07;;;;;;;495.10;105.20;;;19.80;36.90;;;;;;5001902;28;20054;-63
2024/04/03 09:20:34;;;;;;;515.03;113.95;;;19.90;37.20;;;;;;4997469;28;20066;-62
2024/04/03 09:23:03;;;;;;;479.88;99.20;;;20.00;37.20;;;;;;5005657;28;20072;-63
2024/04/03 09:25:30;;;;;;;521.22;114.13;;;20.10;37.10;;;;;;5002406;28;20081;-61
2024/04/03 09:28:02;;;;;;;491.70;105.40;;;20.20;36.90;;;;;;5002990;28;20400;-61
2024/04/03 09:30:29;;;;;;;583.65;146.10;;;20.20;36.80;;;;;;4988473;28;20160;-63
2024/04/03 09:32:58;;;;;;;510.20;107.40;;;20.10;36.50;;;;;;5004631;28;20401;-61
2024/04/03 09:35:27;;;;;;;499.88;105.40;;;20.00;36.40;;;;;;5010820;28;20054;-61
2024/04/03 09:37:55;;;;;;;492.88;103.55;;;19.80;36.50;;;;;;5005378;28;20479;-61
2024/04/03 09:40:26;;;;;;;649.17;162.93;;;19.80;36.70;;;;;;5000084;28;20149;-62
2024/04/03 09:42:58;;;;;;;489.27;102.47;;;19.80;36.80;;;;;;5006408;28;20053;-62
2024/04/03 09:45:26;;;;;;;503.95;106.47;;;19.80;36.80;;;;;;4997478;28;20643;-67
2024/04/03 09:47:59;;;;;;;493.92;102.90;;;19.80;36.70;;;;;;5015051;28;20053;-62
2024/04/03 09:50:35;;;;;;;655.90;175.82;;;19.70;36.70;;;;;;4987533;28;20125;-63
2024/04/03 09:53:05;;;;;;;507.92;108.05;;;19.80;36.70;;;;;;5007204;28;20127;-63
2024/04/03 09:55:35;;;;;;;514.10;112.00;;;19.80;36.80;;;;;;4989782;28;20060;-62
2024/04/03 09:58:03;;;;;;;490.25;102.65;;;20.00;36.90;;;;;;5009269;28;20398;-64
2024/04/03 10:00:29;;;;;;;560.60;139.60;;;20.00;36.60;;;;;;4996917;28;20413;-63
2024/04/03 10:02:57;;;;;;;498.77;105.90;;;20.00;36.40;;;;;;5010160;28;20054;-64
2024/04/03 10:05:34;;;;;;;500.48;106.43;;;19.90;36.30;;;;;;5013611;28;20052;-64
2024/04/03 10:08:04;;;;;;;470.92;106.10;;;19.90;36.50;;;;;;4992258;28;20144;-62
2024/04/03 10:10:32;;;;;;;614.58;159.02;;;19.90;36.50;;;;;;4996854;28;20442;-62
2024/04/03 10:13:01;;;;;;;538.22;118.68;;;19.90;36.50;;;;;;4987065;28;20054;-63
2024/04/03 10:15:28;;;;;;;575.08;132.68;;;19.90;36.50;;;;;;5006823;28;20060;-63
2024/04/03 10:18:03;;;;;;;515.47;110.72;;;20.00;36.70;;;;;;5009508;28;20088;-62
2024/04/03 10:20:38;;;;;;;566.83;142.90;;;20.20;36.80;;;;;;4985786;28;20732;-62
2024/04/03 10:23:08;;;;;;;495.52;106.18;;;20.50;36.80;;;;;;4994021;28;20181;-63
2024/04/03 10:25:38;;;;;;;528.08;111.43;;;20.80;36.50;;;;;;5007896;28;20111;-64
2024/04/03 10:28:12;;;;;;;541.40;118.60;;;21.10;36.50;;;;;;5006909;28;20053;-64
2024/04/03 10:30:39;;;;;;;509.95;111.00;;;21.60;36.50;;;;;;5004714;28;20061;-62
2024/04/03 10:33:07;;;;;;;520.08;113.40;;;22.00;36.30;;;;;;5002451;28;20057;-63
2024/04/03 10:35:34;;;;;;;497.52;112.40;;;22.40;35.90;;;;;;5004269;28;20056;-63
2024/04/03 10:38:02;;;;;;;525.65;120.45;;;22.50;35.50;;;;;;5005304;28;20084;-62
2024/04/03 10:40:30;;;;;;;596.65;163.90;;;22.70;35.50;;;;;;4999808;28;20067;-65
2024/04/03 10:42:59;;;;;;;576.25;144.77;;;22.80;35.40;;;;;;4990935;28;20616;-63
2024/04/03 10:45:26;;;;;;;532.55;125.32;;;22.90;35.30;;;;;;5008632;28;20483;-63
2024/04/03 10:47:53;;;;;;;524.40;125.53;;;23.10;35.30;;;;;;5004917;28;20057;-63
2024/04/03 10:50:23;;;;;;;659.30;198.15;;;23.30;35.10;;;;;;4996995;28;20116;-65
2024/04/03 10:52:50;;;;;;;527.70;124.32;;;23.30;34.80;;;;;;5011017;28;20051;-63
2024/04/03 10:55:19;;;;;;;532.72;128.23;;;23.30;34.80;;;;;;5004214;28;20112;-62
2024/04/03 10:57:48;;;;;;;544.92;131.57;;;23.40;34.90;;;;;;5007683;28;20057;-61
2024/04/03 11:00:16;;;;;;;676.42;186.65;;;23.50;34.80;;;;;;4985277;28;20472;-63
2024/04/03 11:02:47;;;;;;;538.17;131.98;;;23.60;34.80;;;;;;4998469;28;20057;-61
2024/04/03 11:05:15;;;;;;;505.10;121.22;;;23.70;34.60;;;;;;5008010;28;20057;-62
2024/04/03 11:07:43;;;;;;;534.38;129.73;;;23.60;34.40;;;;;;5001487;28;20050;-61
2024/04/03 11:10:12;;;;;;;532.10;131.63;;;23.70;34.50;;;;;;5018012;28;20056;-64
2024/04/03 11:12:41;;;;;;;505.45;123.15;;;23.80;34.50;;;;;;5004704;28;20158;-64
2024/04/03 11:15:09;;;;;;;516.63;127.63;;;23.90;34.30;;;;;;5005872;28;20046;-62
2024/04/03 11:17:38;;;;;;;526.85;128.55;;;24.00;34.30;;;;;;5002327;28;20054;-65
2024/04/03 11:20:06;;;;;;;500.95;122.75;;;24.30;34.50;;;;;;5001739;28;20065;-62
2024/04/03 11:22:34;;;;;;;511.00;130.60;;;24.60;34.40;;;;;;4993474;28;22099;-63
2024/04/03 11:25:01;;;;;;;574.83;153.02;;;24.90;34.20;;;;;;5003958;28;20789;-63
2024/04/03 11:27:31;;;;;;;523.67;135.02;;;25.20;33.90;;;;;;5009356;28;20053;-64
2024/04/03 11:29:58;;;;;;;535.05;141.55;;;25.40;33.70;;;;;;5003348;28;20092;-64
2024/04/03 11:32:27;;;;;;;675.15;214.80;;;25.50;33.50;;;;;;5004764;28;20159;-63
2024/04/03 11:34:56;;;;;;;538.17;140.20;;;25.60;33.50;;;;;;5009599;28;20157;-62
2024/04/03 11:37:23;;;;;;;516.75;138.15;;;25.70;33.40;;;;;;5009634;28;20065;-64
2024/04/03 11:39:50;;;;;;;526.78;139.48;;;25.80;33.30;;;;;;5006660;28;20133;-62
2024/04/03 11:42:17;;;;;;;676.75;208.38;;;26.00;33.30;;;;;;5014197;28;20128;-64
2024/04/03 11:44:44;;;;;;;535.70;141.52;;;26.10;33.10;;;;;;5006019;28;20057;-62
2024/04/03 11:47:11;;;;;;;536.67;148.70;;;26.20;33.00;;;;;;5008834;28;20071;-63
2024/04/03 11:49:38;;;;;;;550.88;152.20;;;26.30;33.00;;;;;;5010985;28;20061;-64
2024/04/03 11:52:08;;;;;;;578.95;161.75;;;26.40;32.90;;;;;;5008842;28;20053;-61
2024/04/03 11:54:34;;;;;;;524.58;141.80;;;26.40;32.50;;;;;;4999604;28;20042;-61
2024/04/03 11:57:02;;;;;;;539.28;155.25;;;26.10;31.90;;;;;;5011477;28;20049;-62
2024/04/03 11:59:29;;;;;;;547.70;143.82;;;25.70;31.90;;;;;;4996136;28;20084;-66
2024/04/03 12:01:56;;;;;;;511.13;135.98;;;25.70;32.40;;;;;;5008856;28;20111;-64
2024/04/03 12:04:24;;;;;;;727.45;232.00;;;25.70;32.60;;;;;;4981286;28;20483;-61
2024/04/03 12:06:51;;;;;;;512.40;136.30;;;25.70;32.60;;;;;;5002172;28;20061;-62
2024/04/03 12:09:19;;;;;;;537.42;141.13;;;25.70;32.30;;;;;;5005440;28;20057;-62
2024/04/03 12:11:47;;;;;;;529.95;143.38;;;25.50;32.20;;;;;;5005626;28;20115;-63
2024/04/03 12:14:14;;;;;;;668.60;192.82;;;25.40;32.30;;;;;;4999319;28;20421;-62
2024/04/03 12:16:41;;;;;;;571.88;153.27;;;25.50;32.60;;;;;;5002077;28;20511;-62
2024/04/03 12:19:16;;;;;;;546.30;144.50;;;25.60;32.50;;;;;;4996115;28;20125;-63